sensor_id;sensor_type;location;lat;lon;timestamp;P1;durP1;ratioP1;P2;durP2;ratioP2
40339;SDS011;26044;50.864;20.658;2023-06-24T09:43:34;8.82;;;3.85;;
40339;SDS011;26044;50.864;20.658;2023-06-24T09:46:15;10.43;;;3.47;;
40339;SDS011;26044;50.864;20.658;2023-06-24T09:48:42;10.52;;;4.03;;
40339;SDS011;26044;50.864;20.658;2023-06-24T09:51:16;9.88;;;3.58;;
40339;SDS011;26044;50.864;20.658;2023-06-24T09:53:50;7.57;;;3.15;;
40339;SDS011;26044;50.864;20.658;2023-06-24T09:56:27;9.88;;;3.67;;
40339;SDS011;26044;50.864;20.658;2023-06-24T09:59:01;9.30;;;3.80;;
40339;SDS011;26044;50.864;20.658;2023-06-24T10:01:36;10.60;;;3.70;;
40339;SDS011;26044;50.864;20.658;2023-06-24T10:06:39;8.68;;;3.60;;
40339;SDS011;26044;50.864;20.658;2023-06-24T10:09:12;10.98;;;4.13;;
40339;SDS011;26044;50.864;20.658;2023-06-24T10:11:43;8.77;;;3.75;;
40339;SDS011;26044;50.864;20.658;2023-06-24T10:14:18;10.35;;;3.80;;
40339;SDS011;26044;50.864;20.658;2023-06-24T10:16:44;9.20;;;3.63;;
40339;SDS011;26044;50.864;20.658;2023-06-24T10:19:19;8.65;;;3.80;;
40339;SDS011;26044;50.864;20.658;2023-06-24T10:21:54;10.90;;;3.80;;
40339;SDS011;26044;50.864;20.658;2023-06-24T10:24:34;7.28;;;3.33;;
40339;SDS011;26044;50.864;20.658;2023-06-24T10:27:13;11.50;;;4.30;;
40339;SDS011;26044;50.864;20.658;2023-06-24T10:29:47;9.68;;;3.50;;
40339;SDS011;26044;50.864;20.658;2023-06-24T10:32:15;9.57;;;3.97;;
40339;SDS011;26044;50.864;20.658;2023-06-24T10:34:44;9.00;;;3.28;;
40339;SDS011;26044;50.864;20.658;2023-06-24T10:39:49;7.93;;;3.80;;
40339;SDS011;26044;50.864;20.658;2023-06-24T10:44:54;13.98;;;4.82;;
40339;SDS011;26044;50.864;20.658;2023-06-24T10:47:22;18.00;;;5.57;;
40339;SDS011;26044;50.864;20.658;2023-06-24T10:49:50;13.38;;;5.53;;
40339;SDS011;26044;50.864;20.658;2023-06-24T10:52:18;14.90;;;6.03;;
40339;SDS011;26044;50.864;20.658;2023-06-24T10:54:50;13.25;;;5.78;;
40339;SDS011;26044;50.864;20.658;2023-06-24T10:57:22;16.75;;;5.72;;
40339;SDS011;26044;50.864;20.658;2023-06-24T10:59:51;14.38;;;6.00;;
40339;SDS011;26044;50.864;20.658;2023-06-24T11:02:24;15.07;;;5.85;;
40339;SDS011;26044;50.864;20.658;2023-06-24T11:04:53;15.02;;;5.63;;
40339;SDS011;26044;50.864;20.658;2023-06-24T11:07:23;13.82;;;5.22;;
40339;SDS011;26044;50.864;20.658;2023-06-24T11:09:53;14.23;;;5.97;;
40339;SDS011;26044;50.864;20.658;2023-06-24T11:12:26;15.68;;;6.75;;
40339;SDS011;26044;50.864;20.658;2023-06-24T11:14:58;14.65;;;6.22;;
40339;SDS011;26044;50.864;20.658;2023-06-24T11:17:26;16.05;;;6.20;;
40339;SDS011;26044;50.864;20.658;2023-06-24T11:19:54;9.68;;;4.50;;
40339;SDS011;26044;50.864;20.658;2023-06-24T11:22:22;10.05;;;4.88;;
40339;SDS011;26044;50.864;20.658;2023-06-24T11:24:50;13.32;;;5.28;;
40339;SDS011;26044;50.864;20.658;2023-06-24T11:27:23;19.27;;;6.13;;
40339;SDS011;26044;50.864;20.658;2023-06-24T11:29:52;15.60;;;5.22;;
40339;SDS011;26044;50.864;20.658;2023-06-24T11:32:20;12.32;;;5.53;;
40339;SDS011;26044;50.864;20.658;2023-06-24T11:34:47;14.57;;;5.72;;
40339;SDS011;26044;50.864;20.658;2023-06-24T11:37:15;18.52;;;5.65;;
40339;SDS011;26044;50.864;20.658;2023-06-24T11:39:44;18.02;;;5.50;;
40339;SDS011;26044;50.864;20.658;2023-06-24T11:42:11;12.75;;;5.38;;
40339;SDS011;26044;50.864;20.658;2023-06-24T11:44:41;12.13;;;5.47;;
40339;SDS011;26044;50.864;20.658;2023-06-24T11:47:11;14.23;;;5.30;;
40339;SDS011;26044;50.864;20.658;2023-06-24T11:49:48;12.50;;;5.22;;
40339;SDS011;26044;50.864;20.658;2023-06-24T11:52:19;14.88;;;5.65;;
40339;SDS011;26044;50.864;20.658;2023-06-24T11:54:53;12.05;;;5.05;;
40339;SDS011;26044;50.864;20.658;2023-06-24T11:57:20;13.02;;;5.80;;
40339;SDS011;26044;50.864;20.658;2023-06-24T11:59:47;11.23;;;5.03;;
40339;SDS011;26044;50.864;20.658;2023-06-24T12:02:18;13.10;;;5.38;;
40339;SDS011;26044;50.864;20.658;2023-06-24T12:04:46;13.95;;;5.35;;
40339;SDS011;26044;50.864;20.658;2023-06-24T12:07:14;12.90;;;5.03;;
40339;SDS011;26044;50.864;20.658;2023-06-24T12:27:35;14.25;;;6.35;;
40339;SDS011;26044;50.864;20.658;2023-06-24T12:49:35;17.02;;;6.57;;
40339;SDS011;26044;50.864;20.658;2023-06-24T12:52:09;17.73;;;6.45;;
40339;SDS011;26044;50.864;20.658;2023-06-24T12:58:24;18.02;;;6.65;;
40339;SDS011;26044;50.864;20.658;2023-06-24T13:00:56;17.83;;;6.47;;
40339;SDS011;26044;50.864;20.658;2023-06-24T13:03:25;17.50;;;7.40;;
40339;SDS011;26044;50.864;20.658;2023-06-24T13:05:59;15.57;;;6.63;;
40339;SDS011;26044;50.864;20.658;2023-06-24T13:08:28;15.73;;;6.70;;
40339;SDS011;26044;50.864;20.658;2023-06-24T13:11:07;19.00;;;8.02;;
40339;SDS011;26044;50.864;20.658;2023-06-24T13:13:51;28.83;;;14.75;;
40339;SDS011;26044;50.864;20.658;2023-06-24T13:16:20;20.02;;;9.23;;
40339;SDS011;26044;50.864;20.658;2023-06-24T13:18:49;18.58;;;8.90;;
40339;SDS011;26044;50.864;20.658;2023-06-24T13:21:19;23.10;;;10.20;;
40339;SDS011;26044;50.864;20.658;2023-06-24T13:23:51;20.50;;;9.48;;
40339;SDS011;26044;50.864;20.658;2023-06-24T13:26:45;19.05;;;7.50;;
40339;SDS011;26044;50.864;20.658;2023-06-24T13:29:49;21.48;;;8.20;;
40339;SDS011;26044;50.864;20.658;2023-06-24T13:33:04;17.70;;;8.02;;
40339;SDS011;26044;50.864;20.658;2023-06-24T13:35:53;18.40;;;7.78;;
40339;SDS011;26044;50.864;20.658;2023-06-24T13:41:27;20.40;;;7.75;;
40339;SDS011;26044;50.864;20.658;2023-06-24T13:44:17;19.77;;;8.70;;
40339;SDS011;26044;50.864;20.658;2023-06-24T13:47:11;17.67;;;7.20;;
40339;SDS011;26044;50.864;20.658;2023-06-24T13:50:16;15.48;;;7.18;;
40339;SDS011;26044;50.864;20.658;2023-06-24T13:52:55;14.30;;;6.40;;
40339;SDS011;26044;50.864;20.658;2023-06-24T13:55:55;18.38;;;7.40;;
40339;SDS011;26044;50.864;20.658;2023-06-24T13:59:00;16.58;;;7.63;;
40339;SDS011;26044;50.864;20.658;2023-06-24T14:02:22;19.55;;;7.53;;
40339;SDS011;26044;50.864;20.658;2023-06-24T14:05:41;19.95;;;9.02;;
40339;SDS011;26044;50.864;20.658;2023-06-24T14:09:19;21.00;;;9.77;;
40339;SDS011;26044;50.864;20.658;2023-06-24T14:12:06;21.60;;;10.93;;
40339;SDS011;26044;50.864;20.658;2023-06-24T14:22:04;23.85;;;11.40;;
40339;SDS011;26044;50.864;20.658;2023-06-24T14:25:14;23.35;;;10.63;;
40339;SDS011;26044;50.864;20.658;2023-06-24T14:28:09;19.98;;;9.88;;
40339;SDS011;26044;50.864;20.658;2023-06-24T14:31:02;21.50;;;9.73;;
40339;SDS011;26044;50.864;20.658;2023-06-24T14:33:32;22.20;;;9.43;;
40339;SDS011;26044;50.864;20.658;2023-06-24T14:39:23;18.60;;;8.95;;
40339;SDS011;26044;50.864;20.658;2023-06-24T14:41:50;20.23;;;9.60;;
40339;SDS011;26044;50.864;20.658;2023-06-24T14:44:24;19.38;;;8.27;;
40339;SDS011;26044;50.864;20.658;2023-06-24T14:51:04;20.15;;;9.00;;
40339;SDS011;26044;50.864;20.658;2023-06-24T14:56:54;20.58;;;7.97;;
40339;SDS011;26044;50.864;20.658;2023-06-24T14:59:25;22.92;;;9.60;;
40339;SDS011;26044;50.864;20.658;2023-06-24T15:01:52;18.98;;;8.52;;
40339;SDS011;26044;50.864;20.658;2023-06-24T15:04:36;20.30;;;8.70;;
40339;SDS011;26044;50.864;20.658;2023-06-24T15:07:13;22.33;;;8.80;;
40339;SDS011;26044;50.864;20.658;2023-06-24T15:09:46;20.02;;;8.75;;
40339;SDS011;26044;50.864;20.658;2023-06-24T15:12:23;19.55;;;8.48;;
40339;SDS011;26044;50.864;20.658;2023-06-24T15:14:59;18.92;;;8.25;;
40339;SDS011;26044;50.864;20.658;2023-06-24T15:17:46;20.80;;;8.38;;
40339;SDS011;26044;50.864;20.658;2023-06-24T15:20:23;20.27;;;8.15;;
40339;SDS011;26044;50.864;20.658;2023-06-24T15:22:53;18.83;;;7.85;;
40339;SDS011;26044;50.864;20.658;2023-06-24T15:25:44;19.77;;;8.23;;
40339;SDS011;26044;50.864;20.658;2023-06-24T15:28:56;18.98;;;7.80;;
40339;SDS011;26044;50.864;20.658;2023-06-24T15:31:44;19.98;;;8.05;;
40339;SDS011;26044;50.864;20.658;2023-06-24T15:37:51;20.33;;;7.70;;
40339;SDS011;26044;50.864;20.658;2023-06-24T15:43:42;16.85;;;7.32;;
40339;SDS011;26044;50.864;20.658;2023-06-24T15:58:34;16.60;;;7.22;;
40339;SDS011;26044;50.864;20.658;2023-06-24T16:01:40;16.40;;;7.13;;
40339;SDS011;26044;50.864;20.658;2023-06-24T16:04:52;15.77;;;6.53;;
40339;SDS011;26044;50.864;20.658;2023-06-24T16:07:36;18.38;;;6.40;;
40339;SDS011;26044;50.864;20.658;2023-06-24T16:11:02;15.07;;;6.45;;
40339;SDS011;26044;50.864;20.658;2023-06-24T16:13:52;16.83;;;6.80;;
40339;SDS011;26044;50.864;20.658;2023-06-24T16:17:24;16.83;;;5.90;;
40339;SDS011;26044;50.864;20.658;2023-06-24T16:20:19;11.90;;;5.30;;
40339;SDS011;26044;50.864;20.658;2023-06-24T16:26:31;11.65;;;4.25;;
40339;SDS011;26044;50.864;20.658;2023-06-24T16:29:32;9.70;;;4.32;;
40339;SDS011;26044;50.864;20.658;2023-06-24T16:32:32;12.63;;;4.63;;
40339;SDS011;26044;50.864;20.658;2023-06-24T16:39:57;14.35;;;4.75;;
40339;SDS011;26044;50.864;20.658;2023-06-24T16:42:53;12.48;;;4.80;;
40339;SDS011;26044;50.864;20.658;2023-06-24T16:46:10;11.27;;;5.00;;
40339;SDS011;26044;50.864;20.658;2023-06-24T16:48:55;10.80;;;4.63;;
40339;SDS011;26044;50.864;20.658;2023-06-24T16:52:28;13.32;;;4.82;;
40339;SDS011;26044;50.864;20.658;2023-06-24T16:55:28;12.68;;;4.70;;
40339;SDS011;26044;50.864;20.658;2023-06-24T16:58:56;13.07;;;5.10;;
40339;SDS011;26044;50.864;20.658;2023-06-24T17:02:30;16.23;;;5.70;;
40339;SDS011;26044;50.864;20.658;2023-06-24T17:05:52;13.27;;;5.07;;
40339;SDS011;26044;50.864;20.658;2023-06-24T17:12:38;13.15;;;4.78;;
40339;SDS011;26044;50.864;20.658;2023-06-24T17:15:35;12.90;;;5.05;;
40339;SDS011;26044;50.864;20.658;2023-06-24T17:18:50;11.48;;;4.72;;
40339;SDS011;26044;50.864;20.658;2023-06-24T17:21:43;14.05;;;4.95;;
40339;SDS011;26044;50.864;20.658;2023-06-24T17:24:14;14.30;;;5.10;;
40339;SDS011;26044;50.864;20.658;2023-06-24T17:26:47;10.98;;;4.82;;
40339;SDS011;26044;50.864;20.658;2023-06-24T17:29:43;14.02;;;5.28;;
40339;SDS011;26044;50.864;20.658;2023-06-24T17:32:14;13.73;;;4.95;;
40339;SDS011;26044;50.864;20.658;2023-06-24T17:34:44;11.98;;;4.97;;
40339;SDS011;26044;50.864;20.658;2023-06-24T17:37:20;18.05;;;5.47;;
40339;SDS011;26044;50.864;20.658;2023-06-24T17:39:53;14.25;;;5.55;;
40339;SDS011;26044;50.864;20.658;2023-06-24T17:42:21;14.30;;;5.65;;
40339;SDS011;26044;50.864;20.658;2023-06-24T17:44:52;16.60;;;6.20;;
40339;SDS011;26044;50.864;20.658;2023-06-24T17:47:26;16.35;;;5.60;;
40339;SDS011;26044;50.864;20.658;2023-06-24T17:50:01;13.60;;;5.47;;
40339;SDS011;26044;50.864;20.658;2023-06-24T17:52:34;13.18;;;5.10;;
40339;SDS011;26044;50.864;20.658;2023-06-24T17:55:03;14.10;;;5.53;;
40339;SDS011;26044;50.864;20.658;2023-06-24T17:57:34;16.98;;;6.03;;
40339;SDS011;26044;50.864;20.658;2023-06-24T18:00:05;14.70;;;5.50;;
40339;SDS011;26044;50.864;20.658;2023-06-24T18:03:14;15.38;;;5.60;;
40339;SDS011;26044;50.864;20.658;2023-06-24T18:05:41;17.98;;;6.00;;
40339;SDS011;26044;50.864;20.658;2023-06-24T18:08:31;15.50;;;6.25;;
40339;SDS011;26044;50.864;20.658;2023-06-24T18:11:07;16.30;;;5.82;;
40339;SDS011;26044;50.864;20.658;2023-06-24T18:13:50;14.23;;;5.63;;
40339;SDS011;26044;50.864;20.658;2023-06-24T18:16:17;13.63;;;5.45;;
40339;SDS011;26044;50.864;20.658;2023-06-24T18:18:56;26.52;;;6.65;;
40339;SDS011;26044;50.864;20.658;2023-06-24T18:24:45;15.82;;;5.53;;
40339;SDS011;26044;50.864;20.658;2023-06-24T18:29:57;13.68;;;5.30;;
40339;SDS011;26044;50.864;20.658;2023-06-24T18:32:28;14.02;;;4.93;;
40339;SDS011;26044;50.864;20.658;2023-06-24T18:34:59;16.52;;;5.63;;
40339;SDS011;26044;50.864;20.658;2023-06-24T18:37:28;17.13;;;5.50;;
40339;SDS011;26044;50.864;20.658;2023-06-24T18:42:33;15.57;;;6.05;;
40339;SDS011;26044;50.864;20.658;2023-06-24T18:45:07;15.13;;;5.68;;
40339;SDS011;26044;50.864;20.658;2023-06-24T18:48:05;17.23;;;6.17;;
40339;SDS011;26044;50.864;20.658;2023-06-24T18:50:40;15.18;;;5.20;;
40339;SDS011;26044;50.864;20.658;2023-06-24T18:53:22;12.35;;;5.25;;
40339;SDS011;26044;50.864;20.658;2023-06-24T18:56:14;15.80;;;6.03;;
40339;SDS011;26044;50.864;20.658;2023-06-24T18:58:47;17.58;;;6.13;;
40339;SDS011;26044;50.864;20.658;2023-06-24T19:01:21;20.67;;;6.82;;
40339;SDS011;26044;50.864;20.658;2023-06-24T19:03:51;14.73;;;6.07;;
40339;SDS011;26044;50.864;20.658;2023-06-24T19:06:20;19.20;;;6.20;;
40339;SDS011;26044;50.864;20.658;2023-06-24T19:08:50;15.13;;;5.28;;
40339;SDS011;26044;50.864;20.658;2023-06-24T19:11:25;16.30;;;6.03;;
40339;SDS011;26044;50.864;20.658;2023-06-24T19:14:21;14.48;;;5.65;;
40339;SDS011;26044;50.864;20.658;2023-06-24T19:17:00;15.88;;;5.57;;
40339;SDS011;26044;50.864;20.658;2023-06-24T19:20:03;15.00;;;5.47;;
40339;SDS011;26044;50.864;20.658;2023-06-24T19:23:18;15.63;;;5.28;;
40339;SDS011;26044;50.864;20.658;2023-06-24T19:26:25;14.65;;;5.82;;
40339;SDS011;26044;50.864;20.658;2023-06-24T19:29:00;14.52;;;5.45;;
40339;SDS011;26044;50.864;20.658;2023-06-24T19:31:47;12.88;;;5.10;;
40339;SDS011;26044;50.864;20.658;2023-06-24T19:34:25;17.58;;;5.63;;
40339;SDS011;26044;50.864;20.658;2023-06-24T19:36:55;15.85;;;6.43;;
40339;SDS011;26044;50.864;20.658;2023-06-24T19:39:43;15.65;;;5.82;;
40339;SDS011;26044;50.864;20.658;2023-06-24T19:42:15;13.43;;;5.57;;
40339;SDS011;26044;50.864;20.658;2023-06-24T19:45:09;17.38;;;5.93;;
40339;SDS011;26044;50.864;20.658;2023-06-24T19:48:04;18.27;;;6.20;;
40339;SDS011;26044;50.864;20.658;2023-06-24T19:50:39;17.52;;;6.10;;
40339;SDS011;26044;50.864;20.658;2023-06-24T19:53:17;16.15;;;6.25;;
40339;SDS011;26044;50.864;20.658;2023-06-24T19:55:46;16.25;;;6.30;;
40339;SDS011;26044;50.864;20.658;2023-06-24T19:58:14;14.85;;;5.43;;
40339;SDS011;26044;50.864;20.658;2023-06-24T20:00:50;16.13;;;5.70;;
40339;SDS011;26044;50.864;20.658;2023-06-24T20:03:20;14.15;;;5.30;;
40339;SDS011;26044;50.864;20.658;2023-06-24T20:05:49;15.90;;;5.63;;
40339;SDS011;26044;50.864;20.658;2023-06-24T20:08:24;17.35;;;6.05;;
40339;SDS011;26044;50.864;20.658;2023-06-24T20:10:51;15.55;;;6.35;;
40339;SDS011;26044;50.864;20.658;2023-06-24T20:13:18;15.68;;;5.60;;
40339;SDS011;26044;50.864;20.658;2023-06-24T20:15:45;17.50;;;6.20;;
40339;SDS011;26044;50.864;20.658;2023-06-24T20:20:45;13.65;;;5.22;;
40339;SDS011;26044;50.864;20.658;2023-06-24T20:23:12;14.40;;;5.10;;
40339;SDS011;26044;50.864;20.658;2023-06-24T20:25:40;13.02;;;4.72;;
40339;SDS011;26044;50.864;20.658;2023-06-24T20:28:13;14.65;;;5.03;;
40339;SDS011;26044;50.864;20.658;2023-06-24T20:30:45;14.68;;;5.38;;
40339;SDS011;26044;50.864;20.658;2023-06-24T20:33:19;11.32;;;4.65;;
40339;SDS011;26044;50.864;20.658;2023-06-24T20:35:56;12.52;;;4.93;;
40339;SDS011;26044;50.864;20.658;2023-06-24T20:38:38;16.58;;;5.50;;
40339;SDS011;26044;50.864;20.658;2023-06-24T20:41:59;16.98;;;5.70;;
40339;SDS011;26044;50.864;20.658;2023-06-24T20:44:26;16.88;;;5.70;;
40339;SDS011;26044;50.864;20.658;2023-06-24T20:46:53;15.23;;;5.82;;
40339;SDS011;26044;50.864;20.658;2023-06-24T20:49:28;15.60;;;5.97;;
40339;SDS011;26044;50.864;20.658;2023-06-24T20:52:17;16.58;;;6.30;;
40339;SDS011;26044;50.864;20.658;2023-06-24T20:54:52;15.15;;;5.78;;
40339;SDS011;26044;50.864;20.658;2023-06-24T20:58:04;15.98;;;5.97;;
40339;SDS011;26044;50.864;20.658;2023-06-24T21:00:32;20.23;;;6.15;;
40339;SDS011;26044;50.864;20.658;2023-06-24T21:03:00;16.55;;;6.18;;
40339;SDS011;26044;50.864;20.658;2023-06-24T21:05:36;18.77;;;6.97;;
40339;SDS011;26044;50.864;20.658;2023-06-24T21:08:06;16.52;;;6.25;;
40339;SDS011;26044;50.864;20.658;2023-06-24T21:10:35;18.55;;;6.85;;
40339;SDS011;26044;50.864;20.658;2023-06-24T21:13:06;17.47;;;6.33;;
40339;SDS011;26044;50.864;20.658;2023-06-24T21:15:40;20.33;;;6.75;;
40339;SDS011;26044;50.864;20.658;2023-06-24T21:18:09;17.35;;;6.55;;
40339;SDS011;26044;50.864;20.658;2023-06-24T21:20:36;17.83;;;7.18;;
40339;SDS011;26044;50.864;20.658;2023-06-24T21:23:05;16.73;;;6.25;;
40339;SDS011;26044;50.864;20.658;2023-06-24T21:25:42;15.48;;;6.38;;
40339;SDS011;26044;50.864;20.658;2023-06-24T21:28:11;17.20;;;6.50;;
40339;SDS011;26044;50.864;20.658;2023-06-24T21:30:40;18.35;;;6.55;;
40339;SDS011;26044;50.864;20.658;2023-06-24T21:33:07;16.38;;;6.47;;
40339;SDS011;26044;50.864;20.658;2023-06-24T21:39:27;20.48;;;6.88;;
40339;SDS011;26044;50.864;20.658;2023-06-24T21:41:54;23.50;;;7.40;;
40339;SDS011;26044;50.864;20.658;2023-06-24T21:44:30;16.63;;;6.93;;
40339;SDS011;26044;50.864;20.658;2023-06-24T21:47:03;16.20;;;6.20;;
40339;SDS011;26044;50.864;20.658;2023-06-24T21:49:31;17.90;;;6.85;;
40339;SDS011;26044;50.864;20.658;2023-06-24T21:52:13;16.90;;;6.40;;
40339;SDS011;26044;50.864;20.658;2023-06-24T21:55:00;17.42;;;6.80;;
40339;SDS011;26044;50.864;20.658;2023-06-24T21:57:34;16.92;;;6.75;;
40339;SDS011;26044;50.864;20.658;2023-06-24T22:00:10;14.75;;;5.95;;
40339;SDS011;26044;50.864;20.658;2023-06-24T22:02:45;17.05;;;6.40;;
40339;SDS011;26044;50.864;20.658;2023-06-24T22:05:47;13.45;;;5.38;;
40339;SDS011;26044;50.864;20.658;2023-06-24T22:08:16;17.88;;;6.63;;
40339;SDS011;26044;50.864;20.658;2023-06-24T22:10:47;19.02;;;6.65;;
40339;SDS011;26044;50.864;20.658;2023-06-24T22:13:19;15.02;;;6.25;;
40339;SDS011;26044;50.864;20.658;2023-06-24T22:15:46;18.83;;;6.53;;
40339;SDS011;26044;50.864;20.658;2023-06-24T22:18:30;14.77;;;6.38;;
40339;SDS011;26044;50.864;20.658;2023-06-24T22:21:02;16.10;;;6.47;;
40339;SDS011;26044;50.864;20.658;2023-06-24T22:23:34;16.83;;;6.45;;
40339;SDS011;26044;50.864;20.658;2023-06-24T22:26:03;18.80;;;7.10;;
40339;SDS011;26044;50.864;20.658;2023-06-24T22:28:36;18.55;;;6.82;;
40339;SDS011;26044;50.864;20.658;2023-06-24T22:31:02;16.63;;;7.15;;
40339;SDS011;26044;50.864;20.658;2023-06-24T22:33:34;25.02;;;7.40;;
40339;SDS011;26044;50.864;20.658;2023-06-24T22:38:29;19.50;;;7.97;;
40339;SDS011;26044;50.864;20.658;2023-06-24T22:41:01;19.83;;;7.65;;
40339;SDS011;26044;50.864;20.658;2023-06-24T22:43:33;18.13;;;6.95;;
40339;SDS011;26044;50.864;20.658;2023-06-24T22:46:04;21.77;;;6.90;;
40339;SDS011;26044;50.864;20.658;2023-06-24T22:48:34;18.58;;;7.65;;
40339;SDS011;26044;50.864;20.658;2023-06-24T22:51:04;17.00;;;7.10;;
40339;SDS011;26044;50.864;20.658;2023-06-24T22:53:31;16.88;;;7.00;;
40339;SDS011;26044;50.864;20.658;2023-06-24T22:56:08;18.80;;;7.32;;
40339;SDS011;26044;50.864;20.658;2023-06-24T22:58:35;17.40;;;7.38;;
40339;SDS011;26044;50.864;20.658;2023-06-24T23:01:03;17.05;;;6.95;;
40339;SDS011;26044;50.864;20.658;2023-06-24T23:03:31;15.13;;;6.20;;
40339;SDS011;26044;50.864;20.658;2023-06-24T23:06:05;20.20;;;7.20;;
40339;SDS011;26044;50.864;20.658;2023-06-24T23:08:36;16.73;;;7.13;;
40339;SDS011;26044;50.864;20.658;2023-06-24T23:11:07;18.27;;;6.53;;
40339;SDS011;26044;50.864;20.658;2023-06-24T23:13:42;17.13;;;6.30;;
40339;SDS011;26044;50.864;20.658;2023-06-24T23:16:10;17.65;;;6.47;;
40339;SDS011;26044;50.864;20.658;2023-06-24T23:18:44;19.63;;;7.85;;
40339;SDS011;26044;50.864;20.658;2023-06-24T23:21:11;18.13;;;6.85;;
40339;SDS011;26044;50.864;20.658;2023-06-24T23:23:41;16.10;;;6.35;;
40339;SDS011;26044;50.864;20.658;2023-06-24T23:26:29;21.15;;;6.95;;
40339;SDS011;26044;50.864;20.658;2023-06-24T23:28:55;16.73;;;5.88;;
40339;SDS011;26044;50.864;20.658;2023-06-24T23:31:32;16.08;;;6.53;;
40339;SDS011;26044;50.864;20.658;2023-06-24T23:34:03;18.00;;;6.63;;
40339;SDS011;26044;50.864;20.658;2023-06-24T23:36:30;18.17;;;6.80;;
40339;SDS011;26044;50.864;20.658;2023-06-24T23:39:01;16.70;;;6.50;;
40339;SDS011;26044;50.864;20.658;2023-06-24T23:43:59;17.80;;;6.50;;
40339;SDS011;26044;50.864;20.658;2023-06-24T23:46:26;19.70;;;7.03;;
40339;SDS011;26044;50.864;20.658;2023-06-24T23:48:53;18.63;;;6.90;;
40339;SDS011;26044;50.864;20.658;2023-06-24T23:51:24;17.05;;;6.53;;
40339;SDS011;26044;50.864;20.658;2023-06-24T23:53:58;16.65;;;6.60;;
40339;SDS011;26044;50.864;20.658;2023-06-24T23:56:28;15.98;;;6.45;;
40339;SDS011;26044;50.864;20.658;2023-06-24T23:58:57;17.73;;;7.28;;
